sensor_id;sensor_type;location;lat;lon;timestamp;temperature;humidity
55711;DHT22;41612;51.994;5.880;2024-03-02T00:00:05;9.00;68.40
55711;DHT22;41612;51.994;5.880;2024-03-02T00:02:41;9.10;68.80
55711;DHT22;41612;51.994;5.880;2024-03-02T00:05:08;9.10;68.30
55711;DHT22;41612;51.994;5.880;2024-03-02T00:07:36;9.00;67.90
55711;DHT22;41612;51.994;5.880;2024-03-02T00:10:08;9.10;67.80
55711;DHT22;41612;51.994;5.880;2024-03-02T00:12:36;9.10;68.40
55711;DHT22;41612;51.994;5.880;2024-03-02T00:17:54;9.10;67.90
55711;DHT22;41612;51.994;5.880;2024-03-02T00:20:24;9.10;69.30
55711;DHT22;41612;51.994;5.880;2024-03-02T00:23:02;9.10;69.00
55711;DHT22;41612;51.994;5.880;2024-03-02T00:25:35;9.10;67.30
55711;DHT22;41612;51.994;5.880;2024-03-02T00:28:01;9.10;69.20
55711;DHT22;41612;51.994;5.880;2024-03-02T00:33:10;9.20;68.60
55711;DHT22;41612;51.994;5.880;2024-03-02T00:35:38;9.10;67.70
55711;DHT22;41612;51.994;5.880;2024-03-02T00:38:05;9.20;68.50
55711;DHT22;41612;51.994;5.880;2024-03-02T00:40:32;9.20;68.70
55711;DHT22;41612;51.994;5.880;2024-03-02T00:42:58;9.20;67.40
55711;DHT22;41612;51.994;5.880;2024-03-02T00:45:25;9.10;67.80
55711;DHT22;41612;51.994;5.880;2024-03-02T00:47:52;9.20;68.00
55711;DHT22;41612;51.994;5.880;2024-03-02T00:50:20;9.10;67.80
55711;DHT22;41612;51.994;5.880;2024-03-02T00:52:46;9.10;67.50
55711;DHT22;41612;51.994;5.880;2024-03-02T00:55:14;9.20;68.30
55711;DHT22;41612;51.994;5.880;2024-03-02T00:57:40;9.20;68.20
55711;DHT22;41612;51.994;5.880;2024-03-02T01:00:06;9.20;67.70
55711;DHT22;41612;51.994;5.880;2024-03-02T01:02:36;9.20;67.70
55711;DHT22;41612;51.994;5.880;2024-03-02T01:05:02;9.20;67.60
55711;DHT22;41612;51.994;5.880;2024-03-02T01:07:27;9.20;68.20
55711;DHT22;41612;51.994;5.880;2024-03-02T01:09:53;9.20;69.60
55711;DHT22;41612;51.994;5.880;2024-03-02T01:12:19;9.20;67.60
55711;DHT22;41612;51.994;5.880;2024-03-02T01:14:44;9.20;67.20
55711;DHT22;41612;51.994;5.880;2024-03-02T01:17:10;9.20;67.00
55711;DHT22;41612;51.994;5.880;2024-03-02T01:19:36;9.20;67.70
55711;DHT22;41612;51.994;5.880;2024-03-02T01:22:03;9.20;68.00
55711;DHT22;41612;51.994;5.880;2024-03-02T01:24:30;9.20;67.40
55711;DHT22;41612;51.994;5.880;2024-03-02T01:26:55;9.20;69.10
55711;DHT22;41612;51.994;5.880;2024-03-02T01:29:21;9.20;68.80
55711;DHT22;41612;51.994;5.880;2024-03-02T01:31:47;9.20;68.00
55711;DHT22;41612;51.994;5.880;2024-03-02T01:34:13;9.20;69.10
55711;DHT22;41612;51.994;5.880;2024-03-02T01:36:38;9.20;68.80
55711;DHT22;41612;51.994;5.880;2024-03-02T01:39:04;9.20;69.60
55711;DHT22;41612;51.994;5.880;2024-03-02T01:41:34;9.20;69.70
55711;DHT22;41612;51.994;5.880;2024-03-02T01:44:00;9.20;69.80
55711;DHT22;41612;51.994;5.880;2024-03-02T01:46:25;9.30;70.10
55711;DHT22;41612;51.994;5.880;2024-03-02T01:48:51;9.20;71.40
55711;DHT22;41612;51.994;5.880;2024-03-02T01:51:18;9.20;70.40
55711;DHT22;41612;51.994;5.880;2024-03-02T01:53:43;9.20;71.90
55711;DHT22;41612;51.994;5.880;2024-03-02T01:56:09;9.20;71.40
55711;DHT22;41612;51.994;5.880;2024-03-02T01:58:35;9.20;73.20
55711;DHT22;41612;51.994;5.880;2024-03-02T02:01:01;9.20;72.10
55711;DHT22;41612;51.994;5.880;2024-03-02T02:03:27;9.20;71.60
55711;DHT22;41612;51.994;5.880;2024-03-02T02:05:53;9.10;71.20
55711;DHT22;41612;51.994;5.880;2024-03-02T02:08:18;9.10;72.20
55711;DHT22;41612;51.994;5.880;2024-03-02T02:10:44;9.10;71.60
55711;DHT22;41612;51.994;5.880;2024-03-02T02:13:13;9.10;72.00
55711;DHT22;41612;51.994;5.880;2024-03-02T02:15:39;9.10;72.70
55711;DHT22;41612;51.994;5.880;2024-03-02T02:18:04;9.10;72.30
55711;DHT22;41612;51.994;5.880;2024-03-02T02:20:30;9.00;72.40
55711;DHT22;41612;51.994;5.880;2024-03-02T02:23:02;9.00;72.10
55711;DHT22;41612;51.994;5.880;2024-03-02T02:25:28;9.00;72.90
55711;DHT22;41612;51.994;5.880;2024-03-02T02:27:55;9.00;72.90
55711;DHT22;41612;51.994;5.880;2024-03-02T02:30:24;8.90;72.10
55711;DHT22;41612;51.994;5.880;2024-03-02T02:32:50;8.90;72.90
55711;DHT22;41612;51.994;5.880;2024-03-02T02:35:16;9.00;73.50
55711;DHT22;41612;51.994;5.880;2024-03-02T02:37:42;8.90;72.50
55711;DHT22;41612;51.994;5.880;2024-03-02T02:40:09;8.90;73.30
55711;DHT22;41612;51.994;5.880;2024-03-02T02:42:34;8.90;73.50
55711;DHT22;41612;51.994;5.880;2024-03-02T02:45:00;8.90;73.20
55711;DHT22;41612;51.994;5.880;2024-03-02T02:47:26;8.90;72.70
55711;DHT22;41612;51.994;5.880;2024-03-02T02:49:51;8.90;73.00
55711;DHT22;41612;51.994;5.880;2024-03-02T02:52:17;8.90;73.90
55711;DHT22;41612;51.994;5.880;2024-03-02T02:54:44;8.90;73.50
55711;DHT22;41612;51.994;5.880;2024-03-02T02:57:09;9.00;73.20
55711;DHT22;41612;51.994;5.880;2024-03-02T02:59:35;9.00;73.60
55711;DHT22;41612;51.994;5.880;2024-03-02T03:02:01;9.00;73.90
55711;DHT22;41612;51.994;5.880;2024-03-02T03:04:27;8.90;73.60
55711;DHT22;41612;51.994;5.880;2024-03-02T03:06:52;8.90;73.90
55711;DHT22;41612;51.994;5.880;2024-03-02T03:09:18;8.90;73.50
55711;DHT22;41612;51.994;5.880;2024-03-02T03:11:44;8.90;73.60
55711;DHT22;41612;51.994;5.880;2024-03-02T03:14:10;8.80;73.00
55711;DHT22;41612;51.994;5.880;2024-03-02T03:16:36;8.80;73.30
55711;DHT22;41612;51.994;5.880;2024-03-02T03:19:01;8.80;72.30
55711;DHT22;41612;51.994;5.880;2024-03-02T03:21:27;8.80;73.00
55711;DHT22;41612;51.994;5.880;2024-03-02T03:23:52;8.80;73.90
55711;DHT22;41612;51.994;5.880;2024-03-02T03:26:18;8.70;74.10
55711;DHT22;41612;51.994;5.880;2024-03-02T03:28:44;8.60;73.20
55711;DHT22;41612;51.994;5.880;2024-03-02T03:31:10;8.50;73.40
55711;DHT22;41612;51.994;5.880;2024-03-02T03:33:36;8.50;74.50
55711;DHT22;41612;51.994;5.880;2024-03-02T03:36:04;8.50;74.60
55711;DHT22;41612;51.994;5.880;2024-03-02T03:38:30;8.50;74.70
55711;DHT22;41612;51.994;5.880;2024-03-02T03:40:56;8.50;76.10
55711;DHT22;41612;51.994;5.880;2024-03-02T03:43:22;8.50;74.90
55711;DHT22;41612;51.994;5.880;2024-03-02T03:45:47;8.50;75.10
55711;DHT22;41612;51.994;5.880;2024-03-02T03:48:13;8.50;74.60
55711;DHT22;41612;51.994;5.880;2024-03-02T03:50:38;8.50;74.90
55711;DHT22;41612;51.994;5.880;2024-03-02T03:53:06;8.50;75.90
55711;DHT22;41612;51.994;5.880;2024-03-02T03:55:36;8.50;76.00
55711;DHT22;41612;51.994;5.880;2024-03-02T03:58:02;8.50;77.20
55711;DHT22;41612;51.994;5.880;2024-03-02T04:00:28;8.40;76.60
55711;DHT22;41612;51.994;5.880;2024-03-02T04:02:53;8.40;77.10
55711;DHT22;41612;51.994;5.880;2024-03-02T04:05:19;8.40;76.20
55711;DHT22;41612;51.994;5.880;2024-03-02T04:07:45;8.50;76.40
55711;DHT22;41612;51.994;5.880;2024-03-02T04:10:10;8.50;76.30
55711;DHT22;41612;51.994;5.880;2024-03-02T04:12:36;8.50;76.80
55711;DHT22;41612;51.994;5.880;2024-03-02T04:15:04;8.40;76.20
55711;DHT22;41612;51.994;5.880;2024-03-02T04:17:32;8.40;76.50
55711;DHT22;41612;51.994;5.880;2024-03-02T04:20:02;8.30;75.90
55711;DHT22;41612;51.994;5.880;2024-03-02T04:22:30;8.30;76.30
55711;DHT22;41612;51.994;5.880;2024-03-02T04:24:58;8.30;75.70
55711;DHT22;41612;51.994;5.880;2024-03-02T04:27:23;8.30;76.50
55711;DHT22;41612;51.994;5.880;2024-03-02T04:29:49;8.30;75.70
55711;DHT22;41612;51.994;5.880;2024-03-02T04:32:15;8.30;75.70
55711;DHT22;41612;51.994;5.880;2024-03-02T04:34:40;8.30;75.10
55711;DHT22;41612;51.994;5.880;2024-03-02T04:37:08;8.30;76.70
55711;DHT22;41612;51.994;5.880;2024-03-02T04:39:35;8.30;75.20
55711;DHT22;41612;51.994;5.880;2024-03-02T04:42:01;8.20;75.50
55711;DHT22;41612;51.994;5.880;2024-03-02T04:44:26;8.30;76.60
55711;DHT22;41612;51.994;5.880;2024-03-02T04:46:52;8.20;75.60
55711;DHT22;41612;51.994;5.880;2024-03-02T04:49:18;8.20;75.70
55711;DHT22;41612;51.994;5.880;2024-03-02T04:51:43;8.20;75.80
55711;DHT22;41612;51.994;5.880;2024-03-02T04:54:09;8.10;76.10
55711;DHT22;41612;51.994;5.880;2024-03-02T04:56:34;8.10;77.20
55711;DHT22;41612;51.994;5.880;2024-03-02T04:59:10;8.00;76.30
55711;DHT22;41612;51.994;5.880;2024-03-02T05:01:36;8.00;76.90
55711;DHT22;41612;51.994;5.880;2024-03-02T05:04:02;8.00;76.70
55711;DHT22;41612;51.994;5.880;2024-03-02T05:06:27;8.00;76.50
55711;DHT22;41612;51.994;5.880;2024-03-02T05:08:53;7.90;76.40
55711;DHT22;41612;51.994;5.880;2024-03-02T05:11:20;7.90;78.10
55711;DHT22;41612;51.994;5.880;2024-03-02T05:14:14;7.90;77.60
55711;DHT22;41612;51.994;5.880;2024-03-02T05:16:39;7.80;78.10
55711;DHT22;41612;51.994;5.880;2024-03-02T05:19:07;7.90;78.60
55711;DHT22;41612;51.994;5.880;2024-03-02T05:21:34;7.80;77.30
55711;DHT22;41612;51.994;5.880;2024-03-02T05:24:00;7.80;78.70
55711;DHT22;41612;51.994;5.880;2024-03-02T05:26:26;7.80;77.80
55711;DHT22;41612;51.994;5.880;2024-03-02T05:28:52;7.80;77.80
55711;DHT22;41612;51.994;5.880;2024-03-02T05:31:18;7.80;77.60
55711;DHT22;41612;51.994;5.880;2024-03-02T05:33:44;7.70;77.50
55711;DHT22;41612;51.994;5.880;2024-03-02T05:36:14;7.80;77.30
55711;DHT22;41612;51.994;5.880;2024-03-02T05:39:04;7.80;78.10
55711;DHT22;41612;51.994;5.880;2024-03-02T05:41:35;7.70;78.20
55711;DHT22;41612;51.994;5.880;2024-03-02T05:44:00;7.60;77.60
55711;DHT22;41612;51.994;5.880;2024-03-02T05:46:27;7.60;77.20
55711;DHT22;41612;51.994;5.880;2024-03-02T05:48:53;7.50;76.40
55711;DHT22;41612;51.994;5.880;2024-03-02T05:51:19;7.50;76.80
55711;DHT22;41612;51.994;5.880;2024-03-02T05:53:44;7.50;78.30
55711;DHT22;41612;51.994;5.880;2024-03-02T05:56:10;7.40;78.00
55711;DHT22;41612;51.994;5.880;2024-03-02T05:58:49;7.40;76.90
55711;DHT22;41612;51.994;5.880;2024-03-02T06:01:34;7.40;77.20
55711;DHT22;41612;51.994;5.880;2024-03-02T06:04:00;7.40;78.80
55711;DHT22;41612;51.994;5.880;2024-03-02T06:06:26;7.40;77.60
55711;DHT22;41612;51.994;5.880;2024-03-02T06:08:52;7.40;77.50
55711;DHT22;41612;51.994;5.880;2024-03-02T06:11:19;7.50;77.90
55711;DHT22;41612;51.994;5.880;2024-03-02T06:13:45;7.50;77.30
55711;DHT22;41612;51.994;5.880;2024-03-02T06:16:11;7.50;77.70
55711;DHT22;41612;51.994;5.880;2024-03-02T06:18:36;7.40;77.90
55711;DHT22;41612;51.994;5.880;2024-03-02T06:21:03;7.40;78.50
55711;DHT22;41612;51.994;5.880;2024-03-02T06:24:04;7.30;77.10
55711;DHT22;41612;51.994;5.880;2024-03-02T06:27:41;7.30;77.20
55711;DHT22;41612;51.994;5.880;2024-03-02T06:34:07;7.20;76.80
55711;DHT22;41612;51.994;5.880;2024-03-02T06:36:49;7.20;77.30
55711;DHT22;41612;51.994;5.880;2024-03-02T06:39:15;7.30;77.80
55711;DHT22;41612;51.994;5.880;2024-03-02T06:41:41;7.30;77.50
55711;DHT22;41612;51.994;5.880;2024-03-02T06:44:10;7.40;78.50
55711;DHT22;41612;51.994;5.880;2024-03-02T06:46:38;7.50;77.80
55711;DHT22;41612;51.994;5.880;2024-03-02T06:49:05;7.50;78.40
55711;DHT22;41612;51.994;5.880;2024-03-02T06:51:30;7.50;78.10
55711;DHT22;41612;51.994;5.880;2024-03-02T06:53:56;7.60;77.10
55711;DHT22;41612;51.994;5.880;2024-03-02T06:56:22;7.60;78.00
55711;DHT22;41612;51.994;5.880;2024-03-02T06:58:47;7.70;77.50
55711;DHT22;41612;51.994;5.880;2024-03-02T07:01:13;7.70;76.40
55711;DHT22;41612;51.994;5.880;2024-03-02T07:03:40;7.80;77.70
55711;DHT22;41612;51.994;5.880;2024-03-02T07:06:08;7.80;76.20
55711;DHT22;41612;51.994;5.880;2024-03-02T07:08:36;7.80;75.70
55711;DHT22;41612;51.994;5.880;2024-03-02T07:11:02;7.80;75.30
55711;DHT22;41612;51.994;5.880;2024-03-02T07:13:29;7.80;74.80
55711;DHT22;41612;51.994;5.880;2024-03-02T07:15:55;7.80;76.00
55711;DHT22;41612;51.994;5.880;2024-03-02T07:18:30;7.80;75.50
55711;DHT22;41612;51.994;5.880;2024-03-02T07:21:00;7.70;76.00
55711;DHT22;41612;51.994;5.880;2024-03-02T07:23:31;7.80;76.10
55711;DHT22;41612;51.994;5.880;2024-03-02T07:25:58;7.80;76.00
55711;DHT22;41612;51.994;5.880;2024-03-02T07:28:28;7.70;76.40
55711;DHT22;41612;51.994;5.880;2024-03-02T07:31:04;7.80;76.00
55711;DHT22;41612;51.994;5.880;2024-03-02T07:33:31;7.80;76.40
55711;DHT22;41612;51.994;5.880;2024-03-02T07:36:05;7.90;76.50
55711;DHT22;41612;51.994;5.880;2024-03-02T07:38:31;8.00;75.60
55711;DHT22;41612;51.994;5.880;2024-03-02T07:41:02;8.10;76.10
55711;DHT22;41612;51.994;5.880;2024-03-02T07:43:30;8.20;75.00
55711;DHT22;41612;51.994;5.880;2024-03-02T07:46:04;8.30;75.90
55711;DHT22;41612;51.994;5.880;2024-03-02T07:48:30;8.50;74.90
55711;DHT22;41612;51.994;5.880;2024-03-02T07:50:56;8.50;73.90
55711;DHT22;41612;51.994;5.880;2024-03-02T07:53:27;8.60;73.40
55711;DHT22;41612;51.994;5.880;2024-03-02T07:55:59;8.70;72.80
55711;DHT22;41612;51.994;5.880;2024-03-02T07:58:41;8.70;72.70
55711;DHT22;41612;51.994;5.880;2024-03-02T08:01:07;8.90;72.00
55711;DHT22;41612;51.994;5.880;2024-03-02T08:03:39;9.00;71.10
55711;DHT22;41612;51.994;5.880;2024-03-02T08:06:05;9.00;71.40
55711;DHT22;41612;51.994;5.880;2024-03-02T08:08:31;9.10;70.90
55711;DHT22;41612;51.994;5.880;2024-03-02T08:10:56;9.10;71.20
55711;DHT22;41612;51.994;5.880;2024-03-02T08:13:25;9.20;70.70
55711;DHT22;41612;51.994;5.880;2024-03-02T08:15:51;9.30;70.30
55711;DHT22;41612;51.994;5.880;2024-03-02T08:18:19;9.40;69.60
55711;DHT22;41612;51.994;5.880;2024-03-02T08:20:45;9.50;70.20
55711;DHT22;41612;51.994;5.880;2024-03-02T08:23:11;9.70;69.60
55711;DHT22;41612;51.994;5.880;2024-03-02T08:25:39;9.70;69.10
55711;DHT22;41612;51.994;5.880;2024-03-02T08:28:07;9.70;69.20
55711;DHT22;41612;51.994;5.880;2024-03-02T08:30:36;9.70;68.60
55711;DHT22;41612;51.994;5.880;2024-03-02T08:33:05;9.70;68.30
55711;DHT22;41612;51.994;5.880;2024-03-02T08:35:34;9.70;68.00
55711;DHT22;41612;51.994;5.880;2024-03-02T08:38:04;9.70;69.00
55711;DHT22;41612;51.994;5.880;2024-03-02T08:40:36;9.70;68.50
55711;DHT22;41612;51.994;5.880;2024-03-02T08:43:02;9.80;68.30
55711;DHT22;41612;51.994;5.880;2024-03-02T08:45:30;9.80;67.40
55711;DHT22;41612;51.994;5.880;2024-03-02T08:47:56;9.80;68.60
55711;DHT22;41612;51.994;5.880;2024-03-02T08:50:24;9.80;66.60
55711;DHT22;41612;51.994;5.880;2024-03-02T08:52:50;9.80;66.90
55711;DHT22;41612;51.994;5.880;2024-03-02T08:55:18;9.70;65.80
55711;DHT22;41612;51.994;5.880;2024-03-02T08:57:46;9.70;66.70
55711;DHT22;41612;51.994;5.880;2024-03-02T09:00:12;9.70;67.70
55711;DHT22;41612;51.994;5.880;2024-03-02T09:02:38;9.90;67.60
55711;DHT22;41612;51.994;5.880;2024-03-02T09:05:05;9.90;66.30
55711;DHT22;41612;51.994;5.880;2024-03-02T09:07:31;9.90;66.30
55711;DHT22;41612;51.994;5.880;2024-03-02T09:09:57;10.00;67.50
55711;DHT22;41612;51.994;5.880;2024-03-02T09:12:22;10.10;66.10
55711;DHT22;41612;51.994;5.880;2024-03-02T09:14:48;10.20;65.40
55711;DHT22;41612;51.994;5.880;2024-03-02T09:17:14;10.20;64.10
55711;DHT22;41612;51.994;5.880;2024-03-02T09:19:42;10.20;66.40
55711;DHT22;41612;51.994;5.880;2024-03-02T09:22:08;10.30;64.60
55711;DHT22;41612;51.994;5.880;2024-03-02T09:24:36;10.30;63.80
55711;DHT22;41612;51.994;5.880;2024-03-02T09:27:02;10.30;63.80
55711;DHT22;41612;51.994;5.880;2024-03-02T09:29:28;10.40;64.40
55711;DHT22;41612;51.994;5.880;2024-03-02T09:31:56;10.40;64.20
55711;DHT22;41612;51.994;5.880;2024-03-02T09:34:27;10.40;63.30
55711;DHT22;41612;51.994;5.880;2024-03-02T09:36:58;10.50;64.20
55711;DHT22;41612;51.994;5.880;2024-03-02T09:39:26;10.50;61.70
55711;DHT22;41612;51.994;5.880;2024-03-02T09:41:52;10.50;62.70
55711;DHT22;41612;51.994;5.880;2024-03-02T09:44:24;10.60;64.10
55711;DHT22;41612;51.994;5.880;2024-03-02T09:46:51;10.60;62.00
55711;DHT22;41612;51.994;5.880;2024-03-02T09:49:17;10.70;62.40
55711;DHT22;41612;51.994;5.880;2024-03-02T09:51:48;10.80;62.60
55711;DHT22;41612;51.994;5.880;2024-03-02T09:54:16;11.00;62.20
55711;DHT22;41612;51.994;5.880;2024-03-02T09:56:42;11.20;61.80
55711;DHT22;41612;51.994;5.880;2024-03-02T09:59:08;11.30;62.20
55711;DHT22;41612;51.994;5.880;2024-03-02T10:01:34;11.40;60.50
55711;DHT22;41612;51.994;5.880;2024-03-02T10:04:00;11.60;60.30
55711;DHT22;41612;51.994;5.880;2024-03-02T10:06:28;11.80;59.80
55711;DHT22;41612;51.994;5.880;2024-03-02T10:08:55;12.00;60.50
55711;DHT22;41612;51.994;5.880;2024-03-02T10:11:34;12.10;58.60
55711;DHT22;41612;51.994;5.880;2024-03-02T10:14:11;12.20;57.80
55711;DHT22;41612;51.994;5.880;2024-03-02T10:16:37;12.30;57.40
55711;DHT22;41612;51.994;5.880;2024-03-02T10:19:25;12.50;58.80
55711;DHT22;41612;51.994;5.880;2024-03-02T10:21:53;12.70;57.70
55711;DHT22;41612;51.994;5.880;2024-03-02T10:24:21;12.70;58.00
55711;DHT22;41612;51.994;5.880;2024-03-02T10:26:49;12.80;55.60
55711;DHT22;41612;51.994;5.880;2024-03-02T10:29:15;12.90;53.80
55711;DHT22;41612;51.994;5.880;2024-03-02T10:31:43;12.90;54.50
55711;DHT22;41612;51.994;5.880;2024-03-02T10:34:13;12.90;55.90
55711;DHT22;41612;51.994;5.880;2024-03-02T10:36:43;13.20;56.10
55711;DHT22;41612;51.994;5.880;2024-03-02T10:39:13;13.40;52.90
55711;DHT22;41612;51.994;5.880;2024-03-02T10:41:38;13.50;52.70
55711;DHT22;41612;51.994;5.880;2024-03-02T10:44:09;13.40;51.20
55711;DHT22;41612;51.994;5.880;2024-03-02T10:46:37;13.40;51.90
55711;DHT22;41612;51.994;5.880;2024-03-02T10:49:05;13.50;51.10
55711;DHT22;41612;51.994;5.880;2024-03-02T10:51:33;13.50;51.10
55711;DHT22;41612;51.994;5.880;2024-03-02T10:54:00;13.80;52.60
55711;DHT22;41612;51.994;5.880;2024-03-02T11:01:48;14.00;50.50
55711;DHT22;41612;51.994;5.880;2024-03-02T11:04:16;14.20;49.00
55711;DHT22;41612;51.994;5.880;2024-03-02T11:06:58;14.40;51.20
55711;DHT22;41612;51.994;5.880;2024-03-02T11:09:54;14.70;50.40
55711;DHT22;41612;51.994;5.880;2024-03-02T11:12:31;14.90;47.10
55711;DHT22;41612;51.994;5.880;2024-03-02T11:15:04;15.00;49.90
55711;DHT22;41612;51.994;5.880;2024-03-02T11:17:34;15.20;47.50
55711;DHT22;41612;51.994;5.880;2024-03-02T11:20:03;15.10;47.30
55711;DHT22;41612;51.994;5.880;2024-03-02T11:22:30;15.30;46.60
55711;DHT22;41612;51.994;5.880;2024-03-02T11:24:56;15.50;47.20
55711;DHT22;41612;51.994;5.880;2024-03-02T11:33:04;15.70;46.30
55711;DHT22;41612;51.994;5.880;2024-03-02T11:35:37;15.70;46.80
55711;DHT22;41612;51.994;5.880;2024-03-02T11:38:03;15.70;47.80
55711;DHT22;41612;51.994;5.880;2024-03-02T11:40:30;15.90;44.30
55711;DHT22;41612;51.994;5.880;2024-03-02T11:42:56;15.90;45.10
55711;DHT22;41612;51.994;5.880;2024-03-02T11:45:23;16.10;45.40
55711;DHT22;41612;51.994;5.880;2024-03-02T11:47:57;16.50;45.40
55711;DHT22;41612;51.994;5.880;2024-03-02T11:50:40;17.00;43.70
55711;DHT22;41612;51.994;5.880;2024-03-02T11:53:08;17.70;42.20
55711;DHT22;41612;51.994;5.880;2024-03-02T11:55:35;18.30;42.50
55711;DHT22;41612;51.994;5.880;2024-03-02T11:58:06;18.90;39.30
55711;DHT22;41612;51.994;5.880;2024-03-02T12:00:32;19.10;39.30
55711;DHT22;41612;51.994;5.880;2024-03-02T12:03:08;18.90;38.10
55711;DHT22;41612;51.994;5.880;2024-03-02T12:05:35;18.90;38.00
55711;DHT22;41612;51.994;5.880;2024-03-02T12:08:06;19.20;38.70
55711;DHT22;41612;51.994;5.880;2024-03-02T12:10:33;19.70;36.30
55711;DHT22;41612;51.994;5.880;2024-03-02T12:13:04;20.10;35.70
55711;DHT22;41612;51.994;5.880;2024-03-02T12:15:31;20.50;35.10
55711;DHT22;41612;51.994;5.880;2024-03-02T12:17:58;20.70;36.20
55711;DHT22;41612;51.994;5.880;2024-03-02T12:20:26;20.90;33.40
55711;DHT22;41612;51.994;5.880;2024-03-02T12:22:53;21.20;33.80
55711;DHT22;41612;51.994;5.880;2024-03-02T12:25:23;21.60;31.80
55711;DHT22;41612;51.994;5.880;2024-03-02T12:27:51;22.10;32.40
55711;DHT22;41612;51.994;5.880;2024-03-02T12:30:18;22.50;32.70
55711;DHT22;41612;51.994;5.880;2024-03-02T12:32:47;22.80;30.90
55711;DHT22;41612;51.994;5.880;2024-03-02T12:35:13;22.60;30.90
55711;DHT22;41612;51.994;5.880;2024-03-02T12:37:45;22.20;31.10
55711;DHT22;41612;51.994;5.880;2024-03-02T12:40:12;21.90;32.40
55711;DHT22;41612;51.994;5.880;2024-03-02T12:42:39;21.60;31.70
55711;DHT22;41612;51.994;5.880;2024-03-02T12:45:06;21.70;32.40
55711;DHT22;41612;51.994;5.880;2024-03-02T12:47:33;22.60;30.60
55711;DHT22;41612;51.994;5.880;2024-03-02T12:49:59;22.10;31.10
55711;DHT22;41612;51.994;5.880;2024-03-02T12:52:25;21.10;32.90
55711;DHT22;41612;51.994;5.880;2024-03-02T12:54:51;21.30;32.50
55711;DHT22;41612;51.994;5.880;2024-03-02T12:57:30;21.70;33.50
55711;DHT22;41612;51.994;5.880;2024-03-02T13:00:03;22.60;32.20
55711;DHT22;41612;51.994;5.880;2024-03-02T13:02:41;23.70;29.00
55711;DHT22;41612;51.994;5.880;2024-03-02T13:05:07;24.30;28.30
55711;DHT22;41612;51.994;5.880;2024-03-02T13:07:39;24.70;29.00
55711;DHT22;41612;51.994;5.880;2024-03-02T13:10:07;24.70;27.50
55711;DHT22;41612;51.994;5.880;2024-03-02T13:12:36;24.20;29.10
55711;DHT22;41612;51.994;5.880;2024-03-02T13:15:02;24.00;29.00
55711;DHT22;41612;51.994;5.880;2024-03-02T13:17:29;23.70;29.50
55711;DHT22;41612;51.994;5.880;2024-03-02T13:19:59;24.10;29.20
55711;DHT22;41612;51.994;5.880;2024-03-02T13:22:26;24.70;29.50
55711;DHT22;41612;51.994;5.880;2024-03-02T13:24:54;25.10;29.60
55711;DHT22;41612;51.994;5.880;2024-03-02T13:27:20;24.90;31.70
55711;DHT22;41612;51.994;5.880;2024-03-02T13:29:49;25.00;32.10
55711;DHT22;41612;51.994;5.880;2024-03-02T13:32:15;26.00;28.50
55711;DHT22;41612;51.994;5.880;2024-03-02T13:34:41;26.80;28.30
55711;DHT22;41612;51.994;5.880;2024-03-02T13:37:08;27.50;27.50
55711;DHT22;41612;51.994;5.880;2024-03-02T13:39:34;28.20;26.70
55711;DHT22;41612;51.994;5.880;2024-03-02T13:42:09;28.50;26.60
55711;DHT22;41612;51.994;5.880;2024-03-02T13:44:35;28.60;25.10
55711;DHT22;41612;51.994;5.880;2024-03-02T13:47:01;28.70;24.70
55711;DHT22;41612;51.994;5.880;2024-03-02T13:49:27;28.50;24.90
55711;DHT22;41612;51.994;5.880;2024-03-02T13:52:05;28.10;25.70
55711;DHT22;41612;51.994;5.880;2024-03-02T13:54:41;28.20;25.00
55711;DHT22;41612;51.994;5.880;2024-03-02T13:57:09;27.90;25.50
55711;DHT22;41612;51.994;5.880;2024-03-02T13:59:39;27.20;28.20
55711;DHT22;41612;51.994;5.880;2024-03-02T14:02:05;26.30;26.80
55711;DHT22;41612;51.994;5.880;2024-03-02T14:04:35;25.70;28.00
55711;DHT22;41612;51.994;5.880;2024-03-02T14:07:01;25.00;29.30
55711;DHT22;41612;51.994;5.880;2024-03-02T14:09:29;24.70;33.80
55711;DHT22;41612;51.994;5.880;2024-03-02T14:11:55;23.70;30.10
55711;DHT22;41612;51.994;5.880;2024-03-02T14:14:23;22.90;32.60
55711;DHT22;41612;51.994;5.880;2024-03-02T14:16:49;22.40;33.20
55711;DHT22;41612;51.994;5.880;2024-03-02T14:19:16;22.00;32.20
55711;DHT22;41612;51.994;5.880;2024-03-02T14:21:41;22.20;33.20
55711;DHT22;41612;51.994;5.880;2024-03-02T14:24:07;23.00;32.20
55711;DHT22;41612;51.994;5.880;2024-03-02T14:26:33;23.70;30.10
55711;DHT22;41612;51.994;5.880;2024-03-02T14:29:01;24.10;29.50
55711;DHT22;41612;51.994;5.880;2024-03-02T14:31:29;24.00;29.20
55711;DHT22;41612;51.994;5.880;2024-03-02T14:33:56;24.60;29.40
55711;DHT22;41612;51.994;5.880;2024-03-02T14:36:25;25.70;30.80
55711;DHT22;41612;51.994;5.880;2024-03-02T14:38:53;26.50;26.40
55711;DHT22;41612;51.994;5.880;2024-03-02T14:41:20;27.00;26.50
55711;DHT22;41612;51.994;5.880;2024-03-02T14:43:52;27.20;25.90
55711;DHT22;41612;51.994;5.880;2024-03-02T14:46:18;27.30;25.90
55711;DHT22;41612;51.994;5.880;2024-03-02T14:48:47;27.40;25.30
55711;DHT22;41612;51.994;5.880;2024-03-02T14:51:13;26.90;26.40
55711;DHT22;41612;51.994;5.880;2024-03-02T14:53:42;27.10;27.20
55711;DHT22;41612;51.994;5.880;2024-03-02T14:56:10;27.50;26.00
55711;DHT22;41612;51.994;5.880;2024-03-02T14:58:39;27.70;26.10
55711;DHT22;41612;51.994;5.880;2024-03-02T15:01:05;27.80;26.10
55711;DHT22;41612;51.994;5.880;2024-03-02T15:03:32;27.60;26.40
55711;DHT22;41612;51.994;5.880;2024-03-02T15:05:58;27.30;27.10
55711;DHT22;41612;51.994;5.880;2024-03-02T15:08:24;27.10;28.90
55711;DHT22;41612;51.994;5.880;2024-03-02T15:10:51;27.20;26.80
55711;DHT22;41612;51.994;5.880;2024-03-02T15:13:17;26.00;28.80
55711;DHT22;41612;51.994;5.880;2024-03-02T15:15:42;25.40;28.40
55711;DHT22;41612;51.994;5.880;2024-03-02T15:18:08;24.10;30.00
55711;DHT22;41612;51.994;5.880;2024-03-02T15:20:34;22.20;34.00
55711;DHT22;41612;51.994;5.880;2024-03-02T15:23:00;20.80;37.40
55711;DHT22;41612;51.994;5.880;2024-03-02T15:25:26;19.80;39.00
55711;DHT22;41612;51.994;5.880;2024-03-02T15:27:51;19.80;39.10
55711;DHT22;41612;51.994;5.880;2024-03-02T15:30:17;19.80;38.40
55711;DHT22;41612;51.994;5.880;2024-03-02T15:32:43;20.50;37.70
55711;DHT22;41612;51.994;5.880;2024-03-02T15:35:09;21.30;35.90
55711;DHT22;41612;51.994;5.880;2024-03-02T15:37:36;22.10;34.50
55711;DHT22;41612;51.994;5.880;2024-03-02T15:40:01;22.40;34.80
55711;DHT22;41612;51.994;5.880;2024-03-02T15:45:10;20.80;37.40
55711;DHT22;41612;51.994;5.880;2024-03-02T15:47:38;20.00;39.90
55711;DHT22;41612;51.994;5.880;2024-03-02T15:50:05;20.20;39.00
55711;DHT22;41612;51.994;5.880;2024-03-02T15:52:33;20.00;39.00
55711;DHT22;41612;51.994;5.880;2024-03-02T15:54:59;20.00;39.40
55711;DHT22;41612;51.994;5.880;2024-03-02T15:57:26;19.70;38.70
55711;DHT22;41612;51.994;5.880;2024-03-02T15:59:52;18.80;42.80
55711;DHT22;41612;51.994;5.880;2024-03-02T16:02:18;18.30;42.80
55711;DHT22;41612;51.994;5.880;2024-03-02T16:04:44;17.80;43.40
55711;DHT22;41612;51.994;5.880;2024-03-02T16:07:12;17.20;44.60